Terminal Aerodrome Forecast
Issued by NWS Wilmington, NC

Home | Current Version | Previous Version | Text Only | Print | Product List | Glossary On
Versions: 1 2 3 4 5 6 7 8 9 10 11 12 13 14 15 16 17 18 19 20 21
089
FTUS42 KILM 061733
TAFLBT
TAF
KLBT 061733Z 0618/0718 05006KT P6SM SCT060 SCT100
     FM062300 04008KT P6SM VCSH SCT035 BKN050
     FM070400 01010G18KT P6SM -RA SCT025 OVC050
     FM071100 02010G20KT 6SM -RASN BR SCT015 OVC025
     FM071600 36018G25KT 6SM -RA BR OVC015=

USA.gov is the U.S. government's official web portal to all federal, state and local government web resources and services.